createdAt,value
2018-06-15T00:00:54.705Z,65.55
2018-06-15T00:03:25.452Z,65.69
2018-06-15T00:05:56.154Z,66.20
2018-06-15T00:08:27.916Z,65.85
2018-06-15T00:10:58.974Z,66.14
2018-06-15T00:13:29.829Z,65.87
2018-06-15T00:16:00.670Z,66.37
2018-06-15T00:18:31.404Z,66.57
2018-06-15T00:21:02.379Z,66.56
2018-06-15T00:23:33.287Z,66.83
2018-06-15T00:26:04.069Z,66.82
2018-06-15T00:28:34.779Z,67.02
2018-06-15T00:31:05.554Z,68.04
2018-06-15T00:33:36.281Z,68.74
2018-06-15T00:36:07.298Z,69.27
2018-06-15T00:38:39.429Z,69.38
2018-06-15T00:41:10.492Z,70.46
2018-06-15T00:43:43.533Z,70.99
2018-06-15T00:46:14.811Z,70.86
2018-06-15T00:48:45.766Z,71.33
2018-06-15T00:51:16.623Z,71.58
2018-06-15T00:53:47.647Z,70.62
2018-06-15T00:56:18.762Z,70.26
2018-06-15T00:58:49.926Z,70.53
2018-06-15T01:01:20.645Z,69.60
2018-06-15T01:03:51.677Z,69.30
2018-06-15T01:06:22.930Z,67.71
2018-06-15T01:08:54.946Z,67.52
2018-06-15T01:11:26.073Z,65.80
2018-06-15T01:13:56.977Z,66.10
2018-06-15T01:16:27.536Z,66.08
2018-06-15T01:18:58.332Z,66.87
2018-06-15T01:21:29.310Z,68.13
2018-06-15T01:24:00.363Z,68.67
2018-06-15T01:26:31.421Z,70.35
2018-06-15T01:29:02.513Z,71.28
2018-06-15T01:31:33.274Z,71.92
2018-06-15T01:34:03.886Z,71.89
2018-06-15T01:36:34.615Z,71.71
2018-06-15T01:39:07.724Z,69.77
2018-06-15T01:41:38.643Z,70.10
2018-06-15T01:44:10.408Z,69.14
2018-06-15T01:46:41.603Z,69.19
2018-06-15T01:49:12.477Z,70.11
2018-06-15T01:51:42.891Z,70.20
2018-06-15T01:54:13.776Z,69.80
2018-06-15T01:56:44.690Z,70.11
2018-06-15T01:59:15.768Z,70.32
2018-06-15T02:01:47.045Z,70.50
2018-06-15T02:04:17.848Z,69.46
2018-06-15T02:06:48.739Z,70.04
2018-06-15T02:09:19.690Z,69.97
2018-06-15T02:11:50.926Z,69.77
2018-06-15T02:14:21.895Z,69.89
2018-06-15T02:16:53.045Z,69.99
2018-06-15T02:19:25.301Z,69.53
2018-06-15T02:21:57.283Z,70.27
2018-06-15T02:24:28.260Z,70.01
2018-06-15T02:27:00.476Z,70.86
2018-06-15T02:29:31.890Z,71.58
2018-06-15T02:32:03.050Z,70.87
2018-06-15T02:34:34.222Z,71.90
2018-06-15T02:37:06.286Z,71.16
2018-06-15T02:39:37.358Z,70.60
2018-06-15T02:42:08.437Z,71.86
2018-06-15T02:44:39.223Z,72.78
2018-06-15T02:47:11.239Z,72.79
2018-06-15T02:49:42.302Z,73.62
2018-06-15T02:52:13.215Z,73.26
2018-06-15T02:54:44.195Z,72.80
2018-06-15T02:57:15.054Z,71.98
2018-06-15T02:59:46.200Z,70.81
2018-06-15T03:02:17.251Z,71.08
2018-06-15T03:04:48.629Z,70.69
2018-06-15T03:07:19.560Z,71.75
2018-06-15T03:09:50.635Z,72.56
2018-06-15T03:12:21.761Z,73.18
2018-06-15T03:14:52.901Z,72.92
2018-06-15T03:17:23.441Z,73.11
2018-06-15T03:19:54.416Z,74.15
2018-06-15T03:22:26.326Z,73.98
2018-06-15T03:24:57.414Z,74.82
2018-06-15T03:27:28.850Z,74.90
2018-06-15T03:29:59.744Z,74.68
2018-06-15T03:32:31.817Z,75.02
2018-06-15T03:35:02.551Z,75.52
2018-06-15T03:37:33.383Z,75.21
2018-06-15T03:40:04.712Z,75.72
2018-06-15T03:42:36.812Z,75.39
2018-06-15T03:45:07.897Z,74.85
2018-06-15T03:47:39.008Z,74.93
2018-06-15T03:50:10.014Z,74.54
2018-06-15T03:52:42.118Z,74.12
2018-06-15T03:55:13.296Z,74.00
2018-06-15T03:57:44.507Z,74.02
2018-06-15T04:00:15.638Z,74.32
2018-06-15T04:02:46.766Z,74.57
2018-06-15T04:05:18.108Z,74.86
2018-06-15T04:07:49.555Z,74.78
2018-06-15T04:10:20.573Z,75.04
2018-06-15T04:12:51.936Z,75.17
2018-06-15T04:15:23.079Z,75.04
2018-06-15T04:18:03.484Z,74.26
2018-06-15T04:20:34.992Z,74.47
2018-06-15T04:23:06.100Z,72.62
2018-06-15T04:25:37.137Z,72.43
2018-06-15T04:28:08.147Z,71.62
2018-06-15T04:30:39.156Z,71.56
2018-06-15T04:33:11.287Z,71.17
2018-06-15T04:35:42.504Z,70.89
2018-06-15T04:38:13.242Z,70.52
2018-06-15T04:40:43.914Z,69.68
2018-06-15T04:43:14.864Z,68.83
2018-06-15T04:45:45.970Z,68.73
2018-06-15T04:48:17.205Z,68.36
2018-06-15T04:50:48.460Z,69.24
2018-06-15T04:53:19.475Z,69.68
2018-06-15T04:55:50.550Z,71.08
2018-06-15T04:58:21.550Z,73.00
2018-06-15T05:00:52.659Z,73.64
2018-06-15T05:03:25.053Z,74.04
2018-06-15T05:05:56.215Z,73.62
2018-06-15T05:08:27.165Z,72.30
2018-06-15T05:10:58.186Z,72.62
2018-06-15T05:13:28.972Z,71.92
2018-06-15T05:15:59.943Z,71.63
2018-06-15T05:18:31.003Z,71.66
2018-06-15T05:21:03.118Z,70.70
2018-06-15T05:23:34.109Z,70.69
2018-06-15T05:26:05.162Z,69.89
2018-06-15T05:28:36.431Z,69.09
2018-06-15T05:31:07.339Z,67.99
2018-06-15T05:33:38.274Z,68.23
2018-06-15T05:36:09.324Z,68.71
2018-06-15T05:38:40.505Z,68.83
2018-06-15T05:41:12.247Z,68.30
2018-06-15T05:43:43.111Z,69.49
2018-06-15T05:46:14.580Z,68.54
2018-06-15T05:48:45.714Z,68.04
2018-06-15T05:51:16.782Z,67.76
2018-06-15T05:53:47.556Z,67.84
2018-06-15T05:56:18.794Z,66.06
2018-06-15T05:58:50.016Z,64.58
2018-06-15T06:01:20.748Z,65.31
2018-06-15T06:03:51.574Z,64.94
2018-06-15T06:06:23.020Z,64.45
2018-06-15T06:08:54.203Z,64.81
2018-06-15T06:11:25.250Z,64.96
2018-06-15T06:13:57.352Z,65.55
2018-06-15T06:16:28.428Z,65.46
2018-06-15T06:18:59.919Z,65.35
2018-06-15T06:21:31.060Z,65.11
2018-06-15T06:24:02.257Z,65.10
2018-06-15T06:26:33.317Z,65.92
2018-06-15T06:29:04.149Z,64.80
2018-06-15T06:31:35.297Z,64.78
2018-06-15T06:34:06.352Z,63.82
2018-06-15T06:36:37.354Z,63.79
2018-06-15T06:39:11.579Z,63.83
2018-06-15T06:41:42.508Z,64.03
2018-06-15T06:44:13.292Z,64.30
2018-06-15T06:46:44.382Z,63.34
2018-06-15T06:49:15.483Z,63.23
2018-06-15T06:51:46.363Z,63.43
2018-06-15T06:54:17.505Z,62.34
2018-06-15T06:56:48.467Z,62.00
2018-06-15T06:59:19.497Z,60.86
2018-06-15T07:01:50.561Z,59.02
2018-06-15T07:04:21.540Z,60.08
2018-06-15T07:06:52.751Z,60.58
2018-06-15T07:09:23.486Z,61.05
2018-06-15T07:11:54.431Z,59.15
2018-06-15T07:14:25.045Z,60.13
2018-06-15T07:16:56.078Z,60.31
2018-06-15T07:19:27.089Z,60.03
2018-06-15T07:21:57.870Z,60.59
2018-06-15T07:24:28.910Z,59.53
2018-06-15T07:26:59.424Z,60.39
2018-06-15T07:29:30.292Z,59.88
2018-06-15T07:32:01.280Z,59.56
2018-06-15T07:34:32.311Z,60.36
2018-06-15T07:37:03.137Z,61.01
2018-06-15T07:39:34.282Z,60.70
2018-06-15T07:42:05.581Z,60.50
2018-06-15T07:44:36.551Z,61.08
2018-06-15T07:47:07.378Z,60.12
2018-06-15T07:49:38.538Z,60.00
2018-06-15T07:52:09.348Z,61.47
2018-06-15T07:54:40.207Z,59.87
2018-06-15T07:57:11.404Z,59.88
2018-06-15T07:59:42.396Z,59.32
2018-06-15T08:02:13.352Z,59.08
2018-06-15T08:04:44.144Z,58.79
2018-06-15T08:07:15.271Z,58.94
2018-06-15T08:09:46.231Z,59.61
2018-06-15T08:12:17.211Z,58.50
2018-06-15T08:14:48.405Z,58.25
2018-06-15T08:17:19.722Z,58.69
2018-06-15T08:19:50.747Z,58.86
2018-06-15T08:22:21.777Z,59.32
2018-06-15T08:24:53.019Z,59.56
2018-06-15T08:27:23.800Z,59.22
2018-06-15T08:29:55.002Z,58.11
2018-06-15T08:32:25.888Z,57.64
2018-06-15T08:34:56.589Z,56.62
2018-06-15T08:37:27.455Z,55.40
2018-06-15T08:39:58.205Z,54.69
2018-06-15T08:42:29.175Z,54.26
2018-06-15T08:45:00.355Z,53.21
2018-06-15T08:47:31.518Z,53.28
2018-06-15T08:50:02.009Z,53.22
2018-06-15T08:52:32.738Z,52.02
2018-06-15T08:55:03.925Z,51.32
2018-06-15T08:57:34.806Z,52.07
2018-06-15T09:00:06.269Z,52.34
2018-06-15T09:02:37.351Z,52.83
2018-06-15T09:05:08.612Z,52.78
2018-06-15T09:07:39.563Z,53.81
2018-06-15T09:10:10.517Z,52.80
2018-06-15T09:12:41.620Z,52.99
2018-06-15T09:15:12.955Z,52.07
2018-06-15T09:17:43.979Z,52.79
2018-06-15T09:20:14.823Z,53.27
2018-06-15T09:22:45.625Z,52.28
2018-06-15T09:25:16.486Z,51.74
2018-06-15T09:27:47.298Z,50.74
2018-06-15T09:30:18.161Z,51.30
2018-06-15T09:32:48.896Z,51.42
2018-06-15T09:35:19.686Z,51.97
2018-06-15T09:37:51.002Z,51.25
2018-06-15T09:40:21.796Z,51.54
2018-06-15T09:42:52.587Z,50.41
2018-06-15T09:45:23.375Z,51.24
2018-06-15T09:47:54.503Z,52.48
2018-06-15T09:50:26.437Z,51.56
2018-06-15T09:52:57.400Z,52.22
2018-06-15T09:55:28.232Z,51.98
2018-06-15T09:57:59.091Z,50.87
2018-06-15T10:00:35.034Z,51.60
2018-06-15T10:03:06.205Z,50.02
2018-06-15T10:05:37.356Z,49.67
2018-06-15T10:08:08.553Z,50.56
2018-06-15T10:10:39.612Z,50.55
2018-06-15T10:13:10.788Z,50.57
2018-06-15T10:15:42.264Z,49.11
2018-06-15T10:18:13.361Z,49.45
2018-06-15T10:20:44.204Z,48.87
2018-06-15T10:23:14.989Z,48.80
2018-06-15T10:25:45.652Z,48.15
2018-06-15T10:28:16.691Z,47.32
2018-06-15T10:30:47.712Z,48.19
2018-06-15T10:33:18.071Z,47.11
2018-06-15T10:35:49.037Z,46.18
2018-06-15T10:38:20.206Z,44.77
2018-06-15T10:40:51.409Z,45.97
2018-06-15T10:43:22.534Z,46.31
2018-06-15T10:45:53.543Z,46.57
2018-06-15T10:48:24.682Z,47.63
2018-06-15T10:50:55.467Z,45.74
2018-06-15T10:53:26.458Z,45.24
2018-06-15T10:55:57.386Z,48.93
2018-06-15T10:58:28.556Z,45.79
2018-06-15T11:00:59.677Z,44.41
2018-06-15T11:03:30.625Z,44.55
2018-06-15T11:06:01.139Z,43.92
2018-06-15T11:08:31.770Z,43.53
2018-06-15T11:11:02.855Z,43.75
2018-06-15T11:13:34.583Z,43.55
2018-06-15T11:16:05.613Z,44.68
2018-06-15T11:18:36.699Z,44.12
2018-06-15T11:21:07.683Z,43.34
2018-06-15T11:23:38.966Z,44.19
2018-06-15T11:26:09.820Z,43.75
2018-06-15T11:28:40.833Z,43.59
2018-06-15T11:31:11.874Z,41.94
2018-06-15T11:33:42.583Z,43.00
2018-06-15T11:36:13.675Z,43.15
2018-06-15T11:38:44.788Z,43.85
2018-06-15T11:41:16.732Z,43.64
2018-06-15T11:43:48.351Z,44.46
2018-06-15T11:46:19.450Z,44.43
2018-06-15T11:48:50.676Z,44.82
2018-06-15T11:51:21.682Z,45.15
2018-06-15T11:53:52.802Z,45.53
2018-06-15T11:56:23.956Z,46.79
2018-06-15T11:58:54.864Z,46.01
2018-06-15T12:01:26.693Z,45.54
2018-06-15T12:03:57.751Z,45.97
2018-06-15T12:06:29.110Z,45.34
2018-06-15T12:08:59.956Z,44.99
2018-06-15T12:11:32.446Z,45.20
2018-06-15T12:14:03.459Z,44.59
2018-06-15T12:16:34.592Z,44.67
2018-06-15T12:19:05.617Z,44.65
2018-06-15T12:21:37.817Z,45.11
2018-06-15T12:24:08.620Z,44.93
2018-06-15T12:26:40.622Z,44.99
2018-06-15T12:29:11.425Z,45.09
2018-06-15T12:31:42.557Z,44.30
2018-06-15T12:34:13.483Z,42.60
2018-06-15T12:36:45.653Z,43.07
2018-06-15T12:39:16.439Z,43.44
2018-06-15T12:41:47.514Z,43.62
2018-06-15T12:44:18.329Z,43.69
2018-06-15T12:46:49.337Z,43.51
2018-06-15T12:49:20.419Z,44.38
2018-06-15T12:51:51.194Z,45.00
2018-06-15T12:54:22.373Z,43.74
2018-06-15T12:56:53.385Z,43.56
2018-06-15T12:59:24.383Z,43.44
2018-06-15T13:01:55.512Z,41.77
2018-06-15T13:04:26.532Z,41.06
2018-06-15T13:06:57.498Z,41.77
2018-06-15T13:09:28.259Z,41.01
2018-06-15T13:11:59.232Z,41.77
2018-06-15T13:14:30.032Z,40.36
2018-06-15T13:17:00.786Z,40.51
2018-06-15T13:19:32.051Z,40.32
2018-06-15T13:22:05.076Z,40.47
2018-06-15T13:24:36.562Z,40.83
2018-06-15T13:27:07.274Z,40.35
2018-06-15T13:29:38.112Z,41.25
2018-06-15T13:32:08.921Z,42.61
2018-06-15T13:34:39.763Z,42.69
2018-06-15T13:37:11.548Z,43.45
2018-06-15T13:39:42.443Z,42.09
2018-06-15T13:42:13.210Z,43.20
2018-06-15T13:44:44.159Z,42.85
2018-06-15T13:47:14.969Z,42.35
2018-06-15T13:49:45.787Z,42.91
2018-06-15T13:52:16.588Z,43.81
2018-06-15T13:54:47.395Z,45.03
2018-06-15T13:57:18.530Z,42.61
2018-06-15T13:59:49.678Z,42.68
2018-06-15T14:02:20.527Z,45.25
2018-06-15T14:04:51.341Z,44.26
2018-06-15T14:07:22.102Z,43.83
2018-06-15T14:09:53.197Z,43.32
2018-06-15T14:12:24.191Z,42.16
2018-06-15T14:14:55.458Z,42.03
2018-06-15T14:17:26.460Z,41.12
2018-06-15T14:19:58.519Z,41.10
2018-06-15T14:22:29.684Z,40.91
2018-06-15T14:25:00.765Z,43.78
2018-06-15T14:27:32.869Z,42.28
2018-06-15T14:30:04.154Z,41.56
2018-06-15T14:32:34.948Z,39.77
2018-06-15T14:35:05.968Z,41.32
2018-06-15T14:37:37.926Z,40.61
2018-06-15T14:40:08.960Z,41.00
2018-06-15T14:42:40.158Z,41.52
2018-06-15T14:45:11.489Z,43.51
2018-06-15T14:47:42.660Z,43.53
2018-06-15T14:50:13.838Z,42.46
2018-06-15T14:52:44.665Z,41.44
2018-06-15T14:55:15.596Z,41.53
2018-06-15T14:57:46.897Z,41.91
2018-06-15T15:00:18.094Z,39.99
2018-06-15T15:02:48.839Z,41.58
2018-06-15T15:05:19.987Z,42.90
2018-06-15T15:07:50.786Z,42.49
2018-06-15T15:10:21.808Z,42.05
2018-06-15T15:12:52.849Z,42.98
2018-06-15T15:15:23.891Z,41.94
2018-06-15T15:17:54.715Z,41.54
2018-06-15T15:20:25.736Z,41.57
2018-06-15T15:22:56.899Z,39.93
2018-06-15T15:25:28.023Z,40.89
2018-06-15T15:27:59.067Z,38.88
2018-06-15T15:30:30.081Z,41.07
2018-06-15T15:33:01.237Z,40.81
2018-06-15T15:35:32.514Z,39.62
2018-06-15T15:38:03.738Z,39.53
2018-06-15T15:40:34.809Z,39.58
2018-06-15T15:43:07.028Z,38.95
2018-06-15T15:45:38.085Z,39.75
2018-06-15T15:48:08.883Z,40.77
2018-06-15T15:50:39.854Z,40.89
2018-06-15T15:53:12.085Z,40.83
2018-06-15T15:55:43.255Z,41.46
2018-06-15T15:58:14.442Z,41.52
2018-06-15T16:00:45.765Z,41.92
2018-06-15T16:03:17.536Z,41.31
2018-06-15T16:05:48.741Z,42.64
2018-06-15T16:08:19.808Z,42.06
2018-06-15T16:10:50.799Z,40.91
2018-06-15T16:13:22.403Z,41.98
2018-06-15T16:15:53.472Z,41.33
2018-06-15T16:18:25.649Z,42.35
2018-06-15T16:20:56.907Z,42.95
2018-06-15T16:23:28.520Z,42.20
2018-06-15T16:25:59.599Z,42.01
2018-06-15T16:28:30.758Z,41.64
2018-06-15T16:31:01.872Z,40.76
2018-06-15T16:33:32.983Z,41.37
2018-06-15T16:36:03.962Z,42.43
2018-06-15T16:38:34.943Z,41.93
2018-06-15T16:41:05.917Z,43.66
2018-06-15T16:43:37.194Z,42.27
2018-06-15T16:46:08.075Z,42.37
2018-06-15T16:48:39.343Z,40.71
2018-06-15T16:51:10.691Z,40.01
2018-06-15T16:53:41.648Z,40.18
2018-06-15T16:56:12.544Z,39.52
2018-06-15T16:58:43.651Z,39.99
2018-06-15T17:01:14.476Z,40.00
2018-06-15T17:03:45.284Z,39.62
2018-06-15T17:06:16.091Z,39.06
2018-06-15T17:08:48.051Z,39.41
2018-06-15T17:11:18.854Z,37.18
2018-06-15T17:13:51.940Z,38.67
2018-06-15T17:16:22.770Z,39.68
2018-06-15T17:18:53.571Z,40.40
2018-06-15T17:21:24.443Z,38.99
2018-06-15T17:23:55.318Z,38.35
2018-06-15T17:26:26.116Z,35.72
2018-06-15T17:28:58.069Z,33.90
2018-06-15T17:31:28.917Z,35.06
2018-06-15T17:33:59.721Z,35.07
2018-06-15T17:36:30.593Z,34.68
2018-06-15T17:39:01.517Z,37.12
2018-06-15T17:41:32.534Z,37.76
2018-06-15T18:07:02.000Z,39.79
2018-06-15T18:12:31.284Z,40.21
2018-06-15T18:15:03.418Z,39.79
2018-06-15T18:20:01.275Z,39.67
2018-06-15T18:27:22.930Z,39.75
2018-06-15T18:29:54.094Z,39.36
2018-06-15T18:32:25.657Z,38.28
2018-06-15T18:34:57.236Z,38.42
2018-06-15T18:37:27.968Z,38.54
2018-06-15T18:39:58.912Z,38.61
2018-06-15T18:42:29.318Z,37.43
2018-06-15T18:45:04.199Z,36.94
2018-06-15T18:47:34.386Z,37.06
2018-06-15T18:50:05.045Z,37.90
2018-06-15T18:52:35.912Z,36.60
2018-06-15T18:55:08.181Z,36.79
2018-06-15T18:57:44.569Z,37.43
2018-06-15T19:00:14.876Z,36.26
2018-06-15T19:02:45.256Z,37.58
2018-06-15T19:05:15.633Z,37.17
2018-06-15T19:07:48.910Z,36.67
2018-06-15T19:10:19.290Z,36.30
2018-06-15T19:12:49.764Z,37.17
2018-06-15T19:15:25.813Z,36.94
2018-06-15T19:17:58.378Z,37.10
2018-06-15T19:20:28.592Z,37.48
2018-06-15T19:22:58.975Z,37.71
2018-06-15T19:25:32.356Z,37.30
2018-06-15T19:28:02.679Z,36.31
2018-06-15T19:30:34.286Z,37.03
2018-06-15T19:33:04.645Z,37.79
2018-06-15T19:35:37.588Z,37.75
2018-06-15T19:38:07.981Z,37.69
2018-06-15T19:40:40.951Z,37.25
2018-06-15T19:43:11.385Z,37.96
2018-06-15T19:45:41.850Z,37.49
2018-06-15T19:48:12.261Z,37.17
2018-06-15T19:50:43.849Z,38.32
2018-06-15T19:53:13.916Z,38.56
2018-06-15T19:55:45.890Z,38.21
2018-06-15T19:58:16.326Z,38.78
2018-06-15T20:00:46.715Z,38.23
2018-06-15T20:03:17.067Z,38.32
2018-06-15T20:05:48.550Z,37.96
2018-06-15T20:08:20.154Z,38.74
2018-06-15T20:10:50.547Z,38.19
2018-06-15T20:13:20.947Z,38.95
2018-06-15T20:19:04.614Z,38.42
2018-06-15T20:21:35.706Z,39.61
2018-06-15T20:24:06.112Z,38.78
2018-06-15T20:26:36.502Z,39.52
2018-06-15T20:29:07.116Z,39.05
2018-06-15T20:31:37.371Z,38.78
2018-06-15T20:34:07.749Z,39.75
2018-06-15T20:36:38.100Z,39.19
2018-06-15T20:39:09.438Z,38.95
2018-06-15T20:41:39.880Z,38.99
2018-06-15T20:44:11.146Z,39.13
2018-06-15T20:46:42.424Z,40.02
2018-06-15T20:49:13.693Z,39.62
2018-06-15T20:51:44.037Z,39.23
2018-06-15T20:54:14.374Z,39.17
2018-06-15T20:56:45.557Z,39.50
2018-06-15T20:59:15.941Z,39.62
2018-06-15T21:01:47.085Z,39.96
2018-06-15T21:04:18.518Z,39.68
2018-06-15T21:06:48.886Z,40.24
2018-06-15T21:09:19.336Z,40.00
2018-06-15T21:11:49.673Z,40.36
2018-06-15T21:14:20.015Z,41.12
2018-06-15T21:16:51.465Z,40.39
2018-06-15T21:19:21.789Z,40.54
2018-06-15T21:21:52.175Z,40.51
2018-06-15T21:24:22.479Z,40.63
2018-06-15T21:26:53.852Z,40.52
2018-06-15T21:29:25.374Z,40.78
2018-06-15T21:31:55.747Z,41.56
2018-06-15T21:34:26.114Z,40.93
2018-06-15T21:36:56.438Z,41.51
2018-06-15T21:39:27.780Z,40.96
2018-06-15T21:41:58.076Z,41.98
2018-06-15T21:44:28.588Z,41.19
2018-06-15T21:46:59.967Z,41.38
2018-06-15T21:49:31.679Z,41.70
2018-06-15T21:52:08.105Z,41.53
2018-06-15T21:54:38.444Z,41.80
2018-06-15T21:57:09.005Z,41.82
2018-06-15T21:59:39.327Z,42.59
2018-06-15T22:02:09.655Z,42.89
2018-06-15T22:04:39.993Z,42.93
2018-06-15T22:07:11.003Z,42.65
2018-06-15T22:09:41.317Z,42.32
2018-06-15T22:12:12.716Z,43.14
2018-06-15T22:14:43.162Z,43.32
2018-06-15T22:17:14.647Z,42.51
2018-06-15T22:19:45.463Z,43.45
2018-06-15T22:22:16.107Z,43.36
2018-06-15T22:24:47.544Z,43.54
2018-06-15T22:27:17.835Z,42.86
2018-06-15T22:29:48.252Z,42.97
2018-06-15T22:32:19.360Z,42.90
2018-06-15T22:34:49.708Z,42.91
2018-06-15T22:40:35.001Z,43.98
2018-06-15T22:43:05.998Z,43.13
2018-06-15T22:45:36.263Z,44.13
2018-06-15T22:48:07.436Z,43.37
2018-06-15T22:50:37.759Z,43.87
2018-06-15T22:53:08.196Z,44.34
2018-06-15T22:55:39.831Z,44.31
2018-06-15T22:58:10.246Z,43.64
2018-06-15T23:00:40.540Z,44.60
2018-06-15T23:03:12.007Z,43.93
2018-06-15T23:05:43.145Z,44.64
2018-06-15T23:08:14.525Z,45.04
2018-06-15T23:10:44.806Z,44.43
2018-06-15T23:13:15.094Z,44.86
2018-06-15T23:15:46.096Z,44.73
2018-06-15T23:18:16.407Z,44.01
2018-06-15T23:20:46.719Z,44.13
2018-06-15T23:23:18.012Z,45.03
2018-06-15T23:25:48.266Z,44.24
2018-06-15T23:28:18.539Z,44.27
2018-06-15T23:30:48.859Z,45.40
2018-06-15T23:33:19.892Z,45.21
2018-06-15T23:35:50.168Z,45.30
2018-06-15T23:38:20.423Z,44.65
2018-06-15T23:40:50.743Z,44.76
2018-06-15T23:43:21.130Z,44.80
2018-06-15T23:45:51.424Z,45.78
2018-06-15T23:48:21.709Z,45.49
2018-06-15T23:50:52.103Z,45.10
2018-06-15T23:53:22.486Z,45.71
2018-06-15T23:55:53.739Z,45.20
2018-06-15T23:58:24.832Z,46.01
